Time;durP1;ratioP1;P1;durP2;ratioP2;P2;SDS_P1;SDS_P2;PMS_P1;PMS_P2;Temp;Humidity;BMP_temperature;BMP_pressure;BME280_temperature;BME280_humidity;BME280_pressure;Samples;Min_cycle;Max_cycle;Signal;HPM_P1;HPM_P2
2022/12/18 00:01:28;;;;;;;50.67;19.17;;;-2.90;99.90;;;;;;6188941;23;20021;-89
2022/12/18 00:03:55;;;;;;;53.53;20.83;;;-2.90;99.90;;;;;;6188729;23;20017;-89
2022/12/18 00:06:22;;;;;;;50.78;17.90;;;-2.90;99.90;;;;;;6188484;23;20373;-89
2022/12/18 00:08:47;;;;;;;57.28;20.83;;;-2.90;99.90;;;;;;6214281;23;20063;-88
2022/12/18 00:11:19;;;;;;;46.53;16.60;;;-2.90;99.90;;;;;;6186997;23;20017;-89
2022/12/18 00:13:45;;;;;;;42.30;16.55;;;-2.90;99.90;;;;;;6215065;23;20012;-88
2022/12/18 00:16:13;;;;;;;52.42;19.17;;;-2.90;99.90;;;;;;6187033;23;20020;-89
2022/12/18 00:18:40;;;;;;;48.45;16.25;;;-2.90;99.90;;;;;;6215345;23;20017;-88
2022/12/18 00:21:09;;;;;;;57.28;20.90;;;-3.10;99.90;;;;;;6213122;23;20019;-88
2022/12/18 00:23:36;;;;;;;44.55;18.20;;;-3.00;99.90;;;;;;6214406;23;20013;-88
2022/12/18 00:26:06;;;;;;;54.75;18.77;;;-3.10;99.90;;;;;;6213660;23;20017;-88
2022/12/18 00:28:32;;;;;;;48.00;18.02;;;-3.10;99.90;;;;;;6214988;23;20094;-88
2022/12/18 00:31:02;;;;;;;50.90;17.23;;;-3.10;99.90;;;;;;6186643;23;20017;-89
2022/12/18 00:33:28;;;;;;;50.30;18.30;;;-3.10;99.90;;;;;;6213174;23;20048;-89
2022/12/18 00:35:54;;;;;;;52.90;17.20;;;-3.00;99.90;;;;;;6185643;23;20452;-89
2022/12/18 00:38:19;;;;;;;38.83;16.15;;;-3.10;99.90;;;;;;6211673;23;20020;-88
2022/12/18 00:40:45;;;;;;;58.95;21.17;;;-3.10;99.90;;;;;;6213101;23;20062;-88
2022/12/18 00:43:11;;;;;;;53.67;17.90;;;-3.10;99.90;;;;;;6213291;23;20013;-89
2022/12/18 00:45:36;;;;;;;63.83;21.88;;;-3.20;99.90;;;;;;6214046;23;20036;-88
2022/12/18 00:48:02;;;;;;;49.35;17.98;;;-3.10;99.90;;;;;;6187481;23;20019;-88
2022/12/18 00:50:28;;;;;;;57.75;21.02;;;-3.10;99.90;;;;;;6213817;23;20013;-88
2022/12/18 00:52:54;;;;;;;53.25;19.92;;;-3.20;99.90;;;;;;6213530;23;20376;-87
2022/12/18 00:55:19;;;;;;;58.28;22.17;;;-3.10;99.90;;;;;;6185276;23;20072;-88
2022/12/18 00:57:45;;;;;;;56.45;21.15;;;-3.10;99.90;;;;;;6187500;23;20410;-88
2022/12/18 01:00:13;;;;;;;69.00;23.17;;;-3.10;99.90;;;;;;6167466;23;20008;-89
2022/12/18 01:02:40;;;;;;;43.50;19.52;;;-3.10;99.90;;;;;;6195149;23;20071;-89
2022/12/18 01:05:06;;;;;;;53.50;20.02;;;-3.10;99.90;;;;;;6187695;23;20349;-88
2022/12/18 01:07:32;;;;;;;54.45;17.83;;;-3.20;99.90;;;;;;6188068;23;20020;-89
2022/12/18 01:09:58;;;;;;;55.80;20.38;;;-3.20;99.90;;;;;;6187866;23;20020;-89
2022/12/18 01:12:23;;;;;;;60.47;23.85;;;-3.20;99.90;;;;;;6163444;23;20031;-87
2022/12/18 01:14:49;;;;;;;65.65;23.52;;;-3.20;99.90;;;;;;6187498;23;20013;-86
2022/12/18 01:17:15;;;;;;;66.35;22.50;;;-3.20;99.90;;;;;;6163407;23;20028;-86
2022/12/18 01:19:40;;;;;;;62.35;23.77;;;-3.10;99.90;;;;;;6215214;23;20044;-88
2022/12/18 01:22:06;;;;;;;64.78;21.23;;;-3.10;99.90;;;;;;6186745;23;20055;-87
2022/12/18 01:24:32;;;;;;;59.50;20.92;;;-3.10;99.90;;;;;;6215605;23;20083;-86
2022/12/18 01:26:57;;;;;;;52.35;21.48;;;-3.10;99.90;;;;;;6187796;23;20040;-86
2022/12/18 01:29:23;;;;;;;61.92;22.17;;;-3.10;99.90;;;;;;6187037;23;20020;-86
2022/12/18 01:31:49;;;;;;;56.17;21.17;;;-3.20;99.90;;;;;;6214181;23;20057;-86
2022/12/18 01:34:15;;;;;;;50.90;19.23;;;-3.30;99.90;;;;;;6215024;23;20211;-86
2022/12/18 01:36:40;;;;;;;52.88;19.83;;;-3.30;99.90;;;;;;6187570;23;20044;-87
2022/12/18 01:39:14;;;;;;;53.70;20.20;;;-3.40;99.90;;;;;;6214505;23;20005;-86
2022/12/18 01:44:58;;;;;;;63.90;22.73;;;-3.50;99.90;;;;;;6213126;23;20495;-87
2022/12/18 01:47:42;;;;;;;53.33;19.92;;;-3.50;99.90;;;;;;6187275;23;20047;-87
2022/12/18 01:50:13;;;;;;;54.53;19.75;;;-3.60;99.90;;;;;;6187312;23;20088;-87
2022/12/18 01:52:42;;;;;;;62.47;21.27;;;-3.70;99.90;;;;;;6186887;23;20019;-86
2022/12/18 01:55:10;;;;;;;63.28;21.05;;;-3.70;99.90;;;;;;6214769;23;20059;-86
2022/12/18 01:57:37;;;;;;;57.25;20.63;;;-3.70;99.90;;;;;;6162799;23;20013;-86
2022/12/18 02:00:11;;;;;;;55.17;20.30;;;-3.80;99.90;;;;;;6214206;23;20048;-86
2022/12/18 02:02:37;;;;;;;50.90;18.42;;;-3.90;99.90;;;;;;6187216;23;20036;-86
2022/12/18 02:05:03;;;;;;;56.55;19.60;;;-3.90;99.90;;;;;;6187037;23;20013;-86
2022/12/18 02:07:35;;;;;;;56.20;19.77;;;-4.00;99.90;;;;;;6161595;23;20012;-85
2022/12/18 02:10:07;;;;;;;;;;;-4.00;99.90;;;;;;6162555;23;20024;-85
2022/12/18 02:12:52;;;;;;;66.30;23.42;;;-4.10;99.90;;;;;;6213761;23;19943;-85
2022/12/18 02:15:38;;;;;;;66.38;25.52;;;-4.10;99.90;;;;;;6186896;23;20039;-86
2022/12/18 02:18:36;;;;;;;62.92;20.33;;;-4.20;99.90;;;;;;6186754;23;20024;-86
2022/12/18 02:21:21;;;;;;;66.90;21.77;;;-4.20;99.90;;;;;;6196396;23;20009;-86
2022/12/18 02:24:20;;;;;;;60.85;21.45;;;-4.20;99.90;;;;;;6161898;23;20012;-85
2022/12/18 02:26:53;;;;;;;53.05;18.48;;;-4.20;99.90;;;;;;6200727;23;20012;-85
2022/12/18 02:29:38;;;;;;;49.85;17.23;;;-4.20;99.90;;;;;;6186826;23;20039;-86
2022/12/18 02:32:09;;;;;;;46.45;17.33;;;-4.30;99.90;;;;;;6185548;23;20017;-85
2022/12/18 02:34:38;;;;;;;61.60;20.77;;;-4.30;99.90;;;;;;6187440;23;20040;-86
2022/12/18 02:37:09;;;;;;;62.42;20.75;;;-4.30;99.90;;;;;;6186523;23;20052;-86
2022/12/18 02:39:38;;;;;;;63.77;22.73;;;-4.40;99.90;;;;;;6187275;23;20055;-86
2022/12/18 02:42:07;;;;;;;61.33;20.83;;;-4.30;99.90;;;;;;6185907;23;20067;-86
2022/12/18 02:44:44;;;;;;;53.22;18.80;;;-4.40;99.90;;;;;;6214658;23;20009;-86
2022/12/18 02:47:12;;;;;;;61.47;20.90;;;-4.40;99.90;;;;;;6213806;23;20012;-85
2022/12/18 02:49:56;;;;;;;52.92;20.17;;;-4.40;99.90;;;;;;6188184;23;20366;-86
2022/12/18 02:52:50;;;;;;;53.50;20.60;;;-4.40;99.90;;;;;;6185910;23;20016;-86
2022/12/18 02:55:37;;;;;;;56.30;19.63;;;-4.40;99.90;;;;;;6186712;23;20592;-86
2022/12/18 02:58:22;;;;;;;59.90;23.20;;;-4.50;99.90;;;;;;6187091;23;20012;-85
2022/12/18 03:01:10;;;;;;;59.15;20.75;;;-4.50;99.90;;;;;;6213000;23;20087;-86
2022/12/18 03:03:42;;;;;;;64.57;23.77;;;-4.60;99.90;;;;;;6161228;23;20008;-86
2022/12/18 03:06:25;;;;;;;47.25;19.20;;;-4.60;99.90;;;;;;6187113;23;20008;-86
2022/12/18 03:08:57;;;;;;;61.33;21.88;;;-4.50;99.90;;;;;;6213691;23;20403;-85
2022/12/18 03:12:22;;;;;;;65.93;23.52;;;-4.60;99.90;;;;;;6186639;23;20019;-86
2022/12/18 03:14:13;;;;;;;62.58;20.55;;;-4.60;99.90;;;;;;6212911;23;20016;-86
2022/12/18 03:16:40;;;;;;;56.83;23.08;;;-4.60;99.90;;;;;;6186481;23;20390;-85
2022/12/18 03:19:16;;;;;;;49.50;19.27;;;-4.60;99.90;;;;;;6185853;23;20104;-85
2022/12/18 03:21:49;;;;;;;56.92;20.13;;;-4.70;99.90;;;;;;6212479;23;20342;-85
2022/12/18 03:24:16;;;;;;;57.55;20.17;;;-4.70;99.90;;;;;;6212621;23;20013;-85
2022/12/18 03:26:47;;;;;;;51.63;21.67;;;-4.70;99.90;;;;;;6187757;23;20335;-86
2022/12/18 03:29:24;;;;;;;53.85;21.73;;;-4.70;99.90;;;;;;6186930;23;20013;-84
2022/12/18 03:32:02;;;;;;;52.08;19.95;;;-4.80;99.90;;;;;;6187518;23;20024;-85
2022/12/18 03:34:35;;;;;;;53.08;19.60;;;-4.80;99.90;;;;;;6215060;23;20464;-85
2022/12/18 03:37:01;;;;;;;58.53;19.63;;;-4.80;99.90;;;;;;6214460;23;20028;-86
2022/12/18 03:39:27;;;;;;;46.35;21.05;;;-4.90;99.90;;;;;;6213343;23;20019;-84
2022/12/18 03:41:58;;;;;;;47.85;17.90;;;-4.90;99.90;;;;;;6186327;23;20645;-84
2022/12/18 03:44:50;;;;;;;55.97;20.73;;;-4.90;99.90;;;;;;6191180;23;20017;-84
2022/12/18 03:47:31;;;;;;;51.92;19.58;;;-4.90;99.90;;;;;;6190365;23;20013;-83
2022/12/18 03:50:12;;;;;;;42.50;17.67;;;-4.90;99.90;;;;;;6194207;23;20333;-84
2022/12/18 03:53:18;;;;;;;47.10;20.52;;;-4.90;99.90;;;;;;6196227;23;20012;-84
2022/12/18 03:55:45;;;;;;;47.47;18.15;;;-5.00;99.90;;;;;;6105633;23;20024;-86
2022/12/18 03:58:14;;;;;;;48.78;18.42;;;-5.00;99.90;;;;;;6095758;23;20018;-85
2022/12/18 04:00:41;;;;;;;41.00;17.80;;;-5.00;99.90;;;;;;6096396;23;20124;-86
2022/12/18 04:03:08;;;;;;;42.78;17.60;;;-5.00;99.90;;;;;;6095321;23;20013;-85
2022/12/18 04:05:36;;;;;;;38.17;16.75;;;-5.00;99.90;;;;;;6121247;23;20010;-85
2022/12/18 04:08:03;;;;;;;47.33;19.63;;;-5.00;99.90;;;;;;6121150;23;20049;-85
2022/12/18 04:10:32;;;;;;;42.30;17.20;;;-5.00;99.90;;;;;;6096236;23;20021;-85
2022/12/18 04:12:58;;;;;;;41.60;16.23;;;-5.10;99.90;;;;;;6095711;23;20097;-85
2022/12/18 04:15:24;;;;;;;44.70;18.55;;;-5.10;99.90;;;;;;6120890;23;20045;-85
2022/12/18 04:17:50;;;;;;;38.10;15.48;;;-5.10;99.90;;;;;;6095777;23;20083;-85
2022/12/18 04:20:16;;;;;;;40.67;16.33;;;-5.10;99.90;;;;;;6120341;23;20014;-85
2022/12/18 04:22:42;;;;;;;38.00;15.80;;;-5.10;99.90;;;;;;6096752;23;20014;-85
2022/12/18 04:25:08;;;;;;;42.50;16.45;;;-5.10;99.90;;;;;;6095882;23;20359;-84
2022/12/18 04:27:34;;;;;;;46.53;17.25;;;-5.20;99.90;;;;;;6095602;23;20026;-84
2022/12/18 04:30:00;;;;;;;40.47;15.98;;;-5.20;99.90;;;;;;6154683;23;20127;-85
2022/12/18 04:32:26;;;;;;;49.83;16.67;;;-5.20;99.90;;;;;;6211986;23;20453;-85
2022/12/18 04:34:52;;;;;;;34.35;14.80;;;-5.20;99.90;;;;;;6189290;23;20066;-85
2022/12/18 04:37:17;;;;;;;35.53;14.82;;;-5.20;99.90;;;;;;6215210;23;20023;-85
2022/12/18 04:39:43;;;;;;;34.53;14.95;;;-5.20;99.90;;;;;;6188599;23;20064;-84
2022/12/18 04:42:09;;;;;;;33.40;13.95;;;-5.20;99.90;;;;;;6162893;23;20070;-84
2022/12/18 04:44:35;;;;;;;34.97;15.48;;;-5.30;99.90;;;;;;6163586;23;20021;-84
2022/12/18 04:47:01;;;;;;;38.97;14.43;;;-5.30;99.90;;;;;;6163580;23;20016;-84
2022/12/18 04:49:27;;;;;;;35.60;15.43;;;-5.30;99.90;;;;;;6188645;23;20096;-84
2022/12/18 04:51:52;;;;;;;40.83;16.25;;;-5.30;99.90;;;;;;6189010;23;20016;-84
2022/12/18 04:54:18;;;;;;;35.42;14.02;;;-5.30;99.90;;;;;;6187743;23;20017;-85
2022/12/18 04:56:44;;;;;;;41.25;15.60;;;-5.40;99.90;;;;;;6187908;23;20091;-84
2022/12/18 04:59:09;;;;;;;35.22;14.30;;;-5.40;99.90;;;;;;6214209;23;20540;-84
2022/12/18 05:01:35;;;;;;;34.40;14.77;;;-5.40;99.90;;;;;;6187910;23;20008;-84
2022/12/18 05:04:02;;;;;;;33.80;14.85;;;-5.40;99.90;;;;;;6187646;23;20020;-85
2022/12/18 05:06:28;;;;;;;37.30;15.18;;;-5.40;99.90;;;;;;6215475;23;20031;-84
2022/12/18 05:08:53;;;;;;;37.70;15.13;;;-5.50;99.90;;;;;;6187497;23;20013;-84
2022/12/18 05:11:19;;;;;;;33.78;12.73;;;-5.50;99.90;;;;;;6186332;23;20013;-84
2022/12/18 05:13:45;;;;;;;30.70;13.38;;;-5.50;99.90;;;;;;6187039;23;20013;-84
2022/12/18 05:16:12;;;;;;;29.17;13.48;;;-5.50;99.90;;;;;;6187449;23;20354;-84
2022/12/18 05:18:37;;;;;;;32.42;12.75;;;-5.60;99.90;;;;;;6215128;23;20064;-84
2022/12/18 05:21:03;;;;;;;28.65;11.98;;;-5.60;99.90;;;;;;6186495;23;20016;-84
2022/12/18 05:23:33;;;;;;;38.78;16.10;;;-5.60;99.90;;;;;;6214211;23;20009;-84
2022/12/18 05:26:04;;;;;;;31.75;14.38;;;-5.60;99.90;;;;;;6187324;23;20101;-83
2022/12/18 05:28:34;;;;;;;33.90;15.05;;;-5.60;99.90;;;;;;6187311;23;20020;-84
2022/12/18 05:31:02;;;;;;;36.20;13.90;;;-5.60;99.90;;;;;;6187430;23;20012;-84
2022/12/18 05:33:31;;;;;;;36.97;15.38;;;-5.60;99.90;;;;;;6214220;23;20044;-84
2022/12/18 05:35:59;;;;;;;32.33;13.93;;;-5.60;99.90;;;;;;6186939;23;20016;-84
2022/12/18 05:38:26;;;;;;;40.60;17.10;;;-5.60;99.90;;;;;;6187481;23;20013;-83
2022/12/18 05:40:52;;;;;;;32.63;15.35;;;-5.60;99.90;;;;;;6186869;23;20016;-84
2022/12/18 05:43:19;;;;;;;30.45;14.40;;;-5.60;99.90;;;;;;6186671;23;20017;-84
2022/12/18 05:45:45;;;;;;;34.28;14.95;;;-5.60;99.90;;;;;;6214101;23;20008;-84
2022/12/18 05:48:11;;;;;;;33.53;14.27;;;-5.60;99.90;;;;;;6187527;23;20019;-83
2022/12/18 05:50:38;;;;;;;34.67;14.45;;;-5.70;99.90;;;;;;6185583;23;20392;-83
2022/12/18 05:53:04;;;;;;;34.22;12.95;;;-5.70;99.90;;;;;;6212768;23;20009;-83
2022/12/18 05:55:38;;;;;;;29.88;13.60;;;-5.70;99.90;;;;;;6213937;23;20016;-83
2022/12/18 05:58:05;;;;;;;34.22;13.73;;;-5.70;99.90;;;;;;6213384;23;20898;-84
2022/12/18 06:00:33;;;;;;;38.00;13.52;;;-5.70;99.90;;;;;;6187665;23;20012;-84
2022/12/18 06:02:58;;;;;;;31.70;14.15;;;-5.80;99.90;;;;;;6213581;23;20043;-84
2022/12/18 06:05:25;;;;;;;32.85;13.13;;;-5.80;99.90;;;;;;6186742;23;20016;-83
2022/12/18 06:07:50;;;;;;;35.88;14.43;;;-5.80;99.90;;;;;;6159547;23;20048;-83
2022/12/18 06:10:16;;;;;;;31.40;15.05;;;-5.80;99.90;;;;;;6186887;23;20017;-83
2022/12/18 06:12:42;;;;;;;37.25;16.08;;;-5.80;99.90;;;;;;6214135;23;20021;-83
2022/12/18 06:15:08;;;;;;;40.08;15.82;;;-5.80;99.90;;;;;;6186903;23;20024;-83
2022/12/18 06:17:34;;;;;;;39.13;15.68;;;-5.90;99.90;;;;;;6213971;23;20048;-83
2022/12/18 06:20:00;;;;;;;37.30;15.30;;;-5.90;99.90;;;;;;6187136;23;20020;-83
2022/12/18 06:22:27;;;;;;;37.78;15.88;;;-5.90;99.90;;;;;;6186766;23;20016;-83
2022/12/18 06:24:53;;;;;;;37.13;15.95;;;-5.90;99.90;;;;;;6213450;23;20389;-83
2022/12/18 06:27:18;;;;;;;38.53;14.85;;;-6.00;99.90;;;;;;6214323;23;20004;-84
2022/12/18 06:29:44;;;;;;;35.20;14.95;;;-6.00;99.90;;;;;;6187469;23;20026;-85
2022/12/18 06:32:10;;;;;;;33.65;15.35;;;-6.00;99.90;;;;;;6212842;23;20017;-83
2022/12/18 06:34:37;;;;;;;34.05;13.93;;;-6.10;99.90;;;;;;6214119;23;20020;-81
2022/12/18 06:37:03;;;;;;;35.38;14.85;;;-6.10;99.90;;;;;;6185630;23;20020;-82
2022/12/18 06:39:32;;;;;;;30.60;12.50;;;-6.20;99.90;;;;;;6180086;23;20025;-80
2022/12/18 06:41:57;;;;;;;35.58;14.57;;;-6.20;99.90;;;;;;6185473;23;20035;-83
2022/12/18 06:44:23;;;;;;;31.58;14.32;;;-6.20;99.90;;;;;;6185110;23;20013;-84
2022/12/18 06:46:49;;;;;;;30.05;12.50;;;-6.20;99.90;;;;;;6211923;23;20009;-84
2022/12/18 06:49:15;;;;;;;31.95;13.52;;;-6.30;99.90;;;;;;6212624;23;20012;-84
2022/12/18 06:51:42;;;;;;;31.05;13.75;;;-6.30;99.90;;;;;;6183810;23;20454;-84
2022/12/18 06:54:08;;;;;;;33.03;13.70;;;-6.30;99.90;;;;;;6211157;23;20036;-84
2022/12/18 06:56:34;;;;;;;31.50;14.20;;;-6.40;99.90;;;;;;6161475;23;20008;-84
2022/12/18 06:58:59;;;;;;;27.75;12.27;;;-6.40;99.90;;;;;;6160297;23;20066;-84
2022/12/18 07:01:25;;;;;;;29.10;12.48;;;-6.40;99.90;;;;;;6184630;23;20095;-85
2022/12/18 07:03:53;;;;;;;34.03;13.57;;;-6.50;99.90;;;;;;6186090;23;20016;-85
2022/12/18 07:06:21;;;;;;;33.08;11.80;;;-6.50;99.90;;;;;;6186956;23;20449;-84
2022/12/18 07:08:48;;;;;;;32.42;14.13;;;-6.50;99.90;;;;;;6184068;23;20067;-84
2022/12/18 07:11:14;;;;;;;33.95;13.35;;;-6.50;99.90;;;;;;6185941;23;20013;-84
2022/12/18 07:13:40;;;;;;;26.02;11.55;;;-6.50;99.90;;;;;;6187008;23;20024;-83
2022/12/18 07:16:13;;;;;;;28.75;12.85;;;-6.50;99.90;;;;;;6186249;23;20051;-84
2022/12/18 07:18:39;;;;;;;30.20;13.90;;;-6.50;99.90;;;;;;6187104;23;20016;-84
2022/12/18 07:21:06;;;;;;;33.42;13.27;;;-6.60;99.90;;;;;;6184577;23;20016;-84
2022/12/18 07:23:33;;;;;;;31.13;12.90;;;-6.60;99.90;;;;;;6186607;23;20371;-85
2022/12/18 07:26:19;;;;;;;29.23;11.73;;;-6.60;99.90;;;;;;6211827;23;20128;-84
2022/12/18 07:28:45;;;;;;;32.72;12.73;;;-6.60;99.90;;;;;;6186735;23;20012;-83
2022/12/18 07:31:13;;;;;;;27.38;12.18;;;-6.60;99.90;;;;;;6185255;23;20023;-84
2022/12/18 07:33:39;;;;;;;25.83;11.60;;;-6.50;99.90;;;;;;6186465;23;20017;-85
2022/12/18 07:36:07;;;;;;;33.28;12.60;;;-6.50;99.90;;;;;;6164309;23;20069;-84
2022/12/18 07:38:34;;;;;;;27.98;12.40;;;-6.50;99.90;;;;;;6214969;23;20020;-84
2022/12/18 07:41:13;;;;;;;26.30;12.32;;;-6.50;99.90;;;;;;6212304;23;20008;-83
2022/12/18 07:43:39;;;;;;;31.00;12.13;;;-6.50;99.90;;;;;;6186589;23;20016;-82
2022/12/18 07:46:05;;;;;;;26.27;11.32;;;-6.50;99.90;;;;;;6213267;23;20016;-82
2022/12/18 07:48:31;;;;;;;25.27;12.13;;;-6.40;99.90;;;;;;6186813;23;20020;-83
2022/12/18 07:51:05;;;;;;;27.05;11.32;;;-6.40;99.90;;;;;;6184215;23;20021;-83
2022/12/18 07:53:31;;;;;;;27.65;11.45;;;-6.30;99.90;;;;;;6185161;23;20020;-82
2022/12/18 07:55:58;;;;;;;27.75;11.30;;;-6.30;99.90;;;;;;6211683;23;20326;-86
2022/12/18 07:58:24;;;;;;;26.33;11.35;;;-6.30;99.90;;;;;;6211984;23;20020;-82
2022/12/18 08:00:50;;;;;;;29.75;12.77;;;-6.20;99.90;;;;;;6186198;23;20051;-83
2022/12/18 08:03:16;;;;;;;26.77;11.80;;;-6.20;99.90;;;;;;6185353;23;20017;-83
2022/12/18 08:05:41;;;;;;;30.60;12.88;;;-6.20;99.90;;;;;;6213971;23;20453;-82
2022/12/18 08:08:07;;;;;;;29.08;13.15;;;-6.10;99.90;;;;;;6186253;23;20354;-81
2022/12/18 08:10:32;;;;;;;29.45;11.32;;;-6.10;99.90;;;;;;6189214;23;20049;-81
2022/12/18 08:12:58;;;;;;;26.17;11.57;;;-6.00;99.90;;;;;;6163742;23;20020;-82
2022/12/18 08:15:24;;;;;;;28.50;12.10;;;-6.00;99.90;;;;;;6185049;23;20353;-81
2022/12/18 08:17:49;;;;;;;22.13;10.70;;;-5.90;99.90;;;;;;6219055;23;20074;-84
2022/12/18 08:20:15;;;;;;;24.33;9.93;;;-5.90;99.90;;;;;;6215504;23;20377;-81
2022/12/18 08:22:42;;;;;;;31.27;11.55;;;-5.80;99.90;;;;;;6214996;23;20610;-81
2022/12/18 08:25:08;;;;;;;21.90;10.57;;;-5.70;99.90;;;;;;6189218;23;20012;-82
2022/12/18 08:27:35;;;;;;;22.75;10.73;;;-5.70;99.90;;;;;;6193941;23;20091;-81
2022/12/18 08:30:00;;;;;;;23.38;10.82;;;-5.60;99.90;;;;;;6194470;23;20095;-83
2022/12/18 08:32:27;;;;;;;18.20;9.20;;;-5.50;99.90;;;;;;6202300;23;20099;-81
2022/12/18 08:34:53;;;;;;;24.02;10.43;;;-5.50;99.90;;;;;;6198909;23;20020;-82
2022/12/18 08:37:19;;;;;;;22.90;10.13;;;-5.40;99.90;;;;;;6193498;23;20020;-81
2022/12/18 08:39:45;;;;;;;27.55;11.73;;;-5.30;99.90;;;;;;6213748;23;20021;-82
2022/12/18 08:44:55;;;;;;;24.00;11.02;;;-5.20;99.90;;;;;;6183872;23;20504;-82
2022/12/18 08:47:20;;;;;;;26.25;12.18;;;-5.10;99.90;;;;;;6213580;23;20013;-81
2022/12/18 08:49:46;;;;;;;21.30;9.60;;;-5.10;99.90;;;;;;6186340;23;20452;-82
2022/12/18 08:52:12;;;;;;;24.70;11.80;;;-5.00;99.90;;;;;;6187022;23;20005;-83
2022/12/18 08:54:37;;;;;;;18.80;9.15;;;-5.00;99.90;;;;;;6187591;23;20016;-81
2022/12/18 08:57:03;;;;;;;21.90;10.85;;;-4.90;99.90;;;;;;6186746;23;20745;-81
2022/12/18 08:59:31;;;;;;;22.58;10.25;;;-4.90;99.90;;;;;;6186260;23;20096;-81
2022/12/18 09:01:57;;;;;;;22.45;10.57;;;-4.80;99.90;;;;;;6186581;23;20021;-82
2022/12/18 09:04:23;;;;;;;23.63;10.45;;;-4.80;99.90;;;;;;6186648;23;20055;-81
2022/12/18 09:06:48;;;;;;;24.02;11.48;;;-4.70;99.90;;;;;;6213087;23;20013;-81
2022/12/18 09:09:14;;;;;;;25.33;10.88;;;-4.70;99.90;;;;;;6186012;23;20017;-81
2022/12/18 09:11:40;;;;;;;21.52;10.73;;;-4.60;99.90;;;;;;6186302;23;20035;-82
2022/12/18 09:14:05;;;;;;;23.38;10.95;;;-4.60;99.90;;;;;;6158847;23;20012;-82
2022/12/18 09:16:32;;;;;;;22.45;9.77;;;-4.50;99.90;;;;;;6212822;23;20418;-82
2022/12/18 09:19:01;;;;;;;24.10;10.60;;;-4.40;99.90;;;;;;6185171;23;20017;-82
2022/12/18 09:21:30;;;;;;;20.00;9.75;;;-4.30;99.90;;;;;;6185986;23;20021;-82
2022/12/18 09:23:56;;;;;;;20.20;10.48;;;-4.30;99.90;;;;;;6187907;23;20333;-82
2022/12/18 09:26:23;;;;;;;21.70;10.95;;;-4.20;99.90;;;;;;6212934;23;20008;-81
2022/12/18 09:28:49;;;;;;;23.58;11.13;;;-4.20;99.90;;;;;;6187531;23;20013;-82
2022/12/18 09:31:17;;;;;;;20.80;10.90;;;-4.10;99.90;;;;;;6214122;23;20009;-82
2022/12/18 09:33:44;;;;;;;23.15;11.90;;;-4.00;99.90;;;;;;6188137;23;20016;-82
2022/12/18 09:36:12;;;;;;;22.48;11.02;;;-4.00;99.90;;;;;;6162523;23;20087;-82
2022/12/18 09:38:38;;;;;;;24.23;11.90;;;-3.90;99.90;;;;;;6188154;23;20083;-82
2022/12/18 09:41:34;;;;;;;24.52;11.18;;;-3.80;99.90;;;;;;6187355;23;20807;-82
2022/12/18 09:44:20;;;;;;;23.35;10.98;;;-3.70;99.90;;;;;;6214511;23;20016;-82
2022/12/18 09:47:02;;;;;;;18.52;10.02;;;-3.70;99.90;;;;;;6187402;23;20017;-82
2022/12/18 09:49:33;;;;;;;19.63;10.02;;;-3.50;99.90;;;;;;6186527;23;20028;-82
2022/12/18 09:52:12;;;;;;;20.77;9.57;;;-3.50;99.90;;;;;;6187544;23;20066;-82
2022/12/18 09:54:43;;;;;;;18.80;9.52;;;-3.30;99.90;;;;;;6188385;23;20047;-82
2022/12/18 09:57:15;;;;;;;17.58;9.30;;;-3.30;99.90;;;;;;6187527;23;20405;-82
2022/12/18 09:59:43;;;;;;;19.67;8.25;;;-3.10;99.90;;;;;;6187604;23;20013;-83
2022/12/18 10:02:21;;;;;;;18.25;8.35;;;-3.00;99.90;;;;;;6213789;23;20081;-82
2022/12/18 10:05:00;;;;;;;16.50;9.13;;;-3.00;99.90;;;;;;6186577;23;20060;-82
2022/12/18 10:07:48;;;;;;;19.17;9.98;;;-2.80;99.90;;;;;;6187778;23;20047;-83
2022/12/18 10:10:26;;;;;;;16.65;8.07;;;-2.90;99.90;;;;;;6214229;23;20013;-82
2022/12/18 10:13:20;;;;;;;15.45;7.60;;;-2.80;99.90;;;;;;6189117;23;20012;-83
2022/12/18 10:15:49;;;;;;;19.40;8.73;;;-2.80;99.90;;;;;;6187853;23;20043;-83
2022/12/18 10:18:20;;;;;;;17.67;8.43;;;-2.80;99.90;;;;;;6187104;23;20016;-83
2022/12/18 10:20:55;;;;;;;19.88;8.90;;;-2.80;99.90;;;;;;6162692;23;20072;-83
2022/12/18 10:23:33;;;;;;;18.70;9.50;;;-2.80;99.90;;;;;;6186779;23;20012;-83
2022/12/18 10:26:07;;;;;;;19.02;8.82;;;-2.80;99.90;;;;;;6214289;23;20334;-82
2022/12/18 10:28:37;;;;;;;17.63;7.47;;;-2.80;99.90;;;;;;6214049;23;20015;-82
2022/12/18 10:31:14;;;;;;;16.35;8.48;;;-2.80;99.90;;;;;;6186620;23;20016;-83
2022/12/18 10:33:41;;;;;;;15.95;6.90;;;-2.80;99.90;;;;;;6186880;23;20052;-82
2022/12/18 10:36:06;;;;;;;15.85;7.55;;;-2.80;99.90;;;;;;6213790;23;20040;-83
2022/12/18 10:38:32;;;;;;;14.73;7.30;;;-2.80;99.90;;;;;;6187636;23;20023;-83
2022/12/18 10:41:06;;;;;;;14.25;7.10;;;-2.70;99.90;;;;;;6187160;23;20012;-83
2022/12/18 10:43:36;;;;;;;14.80;7.07;;;-2.70;99.90;;;;;;6187107;23;20023;-83
2022/12/18 10:46:08;;;;;;;14.57;7.05;;;-2.60;99.90;;;;;;6214091;23;20016;-83
2022/12/18 10:48:38;;;;;;;13.02;5.93;;;-2.50;99.90;;;;;;6213748;23;20315;-84
2022/12/18 10:51:06;;;;;;;12.95;6.38;;;-2.50;99.90;;;;;;6186198;23;20028;-84
2022/12/18 10:53:34;;;;;;;16.42;6.57;;;-2.40;99.90;;;;;;6214396;23;20013;-84
2022/12/18 10:56:00;;;;;;;13.88;6.20;;;-2.40;99.90;;;;;;6186995;23;20020;-85
2022/12/18 10:58:32;;;;;;;15.70;6.10;;;-2.30;99.90;;;;;;6186546;23;20075;-83
2022/12/18 11:01:20;;;;;;;13.90;6.85;;;-2.20;99.90;;;;;;6186525;23;20016;-83
2022/12/18 11:03:59;;;;;;;14.40;6.85;;;-2.20;99.90;;;;;;6212062;23;20048;-84
2022/12/18 11:06:28;;;;;;;11.65;5.43;;;-2.10;99.90;;;;;;6207100;23;20017;-82
2022/12/18 11:09:05;;;;;;;13.07;5.80;;;-2.00;99.90;;;;;;6208786;23;20083;-83
2022/12/18 11:11:32;;;;;;;11.63;5.60;;;-2.00;99.90;;;;;;6185095;23;20016;-83
2022/12/18 11:14:15;;;;;;;15.68;6.78;;;-2.00;99.90;;;;;;6158919;23;20016;-84
2022/12/18 11:16:46;;;;;;;11.93;5.80;;;-1.90;99.90;;;;;;6184061;23;20401;-83
2022/12/18 11:19:17;;;;;;;;;;;-1.80;99.90;;;;;;6185177;23;20016;-82
2022/12/18 11:21:43;;;;;;;11.93;5.15;;;-1.80;99.90;;;;;;6183579;23;19947;-84
2022/12/18 11:24:28;;;;;;;10.50;4.97;;;-1.70;99.90;;;;;;6209537;23;20012;-84
2022/12/18 11:26:54;;;;;;;12.23;5.00;;;-1.70;99.90;;;;;;6211284;23;20063;-84
2022/12/18 11:29:30;;;;;;;9.68;4.57;;;-1.60;99.90;;;;;;6210755;23;20039;-84
2022/12/18 11:32:29;;;;;;;9.43;4.30;;;-1.60;99.90;;;;;;6209529;23;20013;-84
2022/12/18 11:35:09;;;;;;;11.95;4.72;;;-1.50;99.90;;;;;;6210637;23;20103;-84
2022/12/18 11:37:36;;;;;;;12.00;4.90;;;-1.50;99.90;;;;;;6210613;23;20424;-85
2022/12/18 11:40:14;;;;;;;10.25;5.15;;;-1.50;99.90;;;;;;6183838;23;20019;-85
2022/12/18 11:42:59;;;;;;;11.68;4.57;;;-1.40;99.90;;;;;;6184504;23;20504;-84
2022/12/18 11:45:36;;;;;;;12.75;5.82;;;-1.40;99.90;;;;;;6159954;23;20145;-85
2022/12/18 11:48:33;;;;;;;11.95;5.20;;;-1.40;99.90;;;;;;6185334;23;20012;-85
2022/12/18 11:51:03;;;;;;;11.75;5.53;;;-1.30;99.90;;;;;;6186093;23;20335;-85
2022/12/18 11:53:30;;;;;;;11.50;5.47;;;-1.30;99.90;;;;;;6186502;23;20009;-84
2022/12/18 11:56:04;;;;;;;11.57;5.53;;;-1.30;99.90;;;;;;6213380;23;20011;-84
2022/12/18 11:58:58;;;;;;;14.02;5.75;;;-1.20;99.90;;;;;;6187229;23;20345;-85
2022/12/18 12:01:48;;;;;;;12.55;5.60;;;-1.20;99.90;;;;;;6213968;23;20016;-83
2022/12/18 12:05:04;;;;;;;13.07;5.47;;;-1.20;99.90;;;;;;6187454;23;20086;-84
2022/12/18 12:08:18;;;;;;;13.95;5.50;;;-1.10;99.90;;;;;;6097422;23;20358;-85
2022/12/18 12:11:06;;;;;;;12.07;5.40;;;-1.10;99.90;;;;;;6065620;23;20475;-86
2022/12/18 12:13:41;;;;;;;12.68;6.05;;;-1.10;99.90;;;;;;6097503;23;20021;-85
2022/12/18 12:16:21;;;;;;;12.65;5.53;;;-1.00;99.90;;;;;;6095122;23;20025;-86
2022/12/18 12:18:52;;;;;;;12.55;5.95;;;-1.00;99.90;;;;;;6095578;23;20021;-85
2022/12/18 12:21:27;;;;;;;;;;;-1.00;99.90;;;;;;6097563;23;20018;-86
2022/12/18 12:24:14;;;;;;;11.65;5.18;;;-1.00;99.90;;;;;;6096905;23;19960;-85
2022/12/18 12:27:10;;;;;;;13.25;5.13;;;-1.00;99.90;;;;;;6121263;23;20096;-85
2022/12/18 12:29:49;;;;;;;11.55;4.88;;;-0.90;99.90;;;;;;6096120;23;20045;-84
2022/12/18 12:32:29;;;;;;;11.25;5.47;;;-0.90;99.90;;;;;;6071407;23;20077;-84
2022/12/18 12:35:16;;;;;;;11.50;5.50;;;-0.90;99.90;;;;;;6120556;23;20014;-84
2022/12/18 12:38:17;;;;;;;10.45;5.55;;;-0.90;99.90;;;;;;6097383;23;20018;-84
2022/12/18 12:40:58;;;;;;;13.02;5.15;;;-0.90;99.90;;;;;;6097545;23;20024;-84
2022/12/18 12:43:39;;;;;;;11.95;5.30;;;-0.80;99.90;;;;;;6211964;23;20012;-84
2022/12/18 12:46:08;;;;;;;11.35;4.82;;;-0.80;99.90;;;;;;6186225;23;20193;-84
2022/12/18 12:48:42;;;;;;;11.80;4.43;;;-0.80;99.90;;;;;;6214334;23;20330;-84
2022/12/18 12:51:22;;;;;;;11.45;5.25;;;-0.80;99.90;;;;;;6184631;23;20044;-84
2022/12/18 12:53:48;;;;;;;13.00;5.35;;;-0.70;99.90;;;;;;6212920;23;20009;-85
2022/12/18 12:56:17;;;;;;;11.77;5.05;;;-0.70;99.90;;;;;;6161767;23;20020;-84